EWG8ZG EDDK-EDDB
Flight info
| Callsign | EWG8ZG |
|---|---|
| Flight time | 0h 45m |
| Altitude | 33000 |
| Route | PODIP1R PODIP Y867 PELUN DCT ANZIV DCT WRB DCT NORTA DCT HLZ DCT BATEL T207 OGBER OGBER1R |
| Aircraft | A320/M-SDE3FGHIRWY/LB1 |
Departure
| Time | 2026-05-05 15:15 |
|---|---|
| Airport | Cologne Bonn Airport (EDDK) |
Arrival
| Time | 2026-05-05 16:00 |
|---|---|
| Airport | Berlin Brandenburg Airport (EDDB) |
| Time | Latitude | Longitude | Altitude | Speed | Heading |
|---|---|---|---|---|---|
| 2026-05-05 14:40 | 50.88057 | 7.12190 | 232 ft | 0 kts | 216° |
| 2026-05-05 14:55 | 50.88072 | 7.12206 | 232 ft | 4 kts | 209° |
| 2026-05-05 14:55 | 50.88096 | 7.12222 | 234 ft | 4 kts | 189° |
| 2026-05-05 14:56 | 50.88120 | 7.12220 | 235 ft | 4 kts | 142° |
| 2026-05-05 14:56 | 50.88126 | 7.12211 | 235 ft | 0 kts | 126° |
| 2026-05-05 14:58 | 50.88121 | 7.12222 | 235 ft | 3 kts | 126° |
| 2026-05-05 14:58 | 50.88104 | 7.12271 | 233 ft | 7 kts | 112° |
| 2026-05-05 14:59 | 50.88084 | 7.12354 | 233 ft | 9 kts | 123° |
| 2026-05-05 14:59 | 50.88046 | 7.12429 | 232 ft | 8 kts | 134° |
| 2026-05-05 14:59 | 50.88004 | 7.12491 | 232 ft | 9 kts | 137° |
| 2026-05-05 14:59 | 50.87954 | 7.12563 | 232 ft | 10 kts | 137° |
| 2026-05-05 15:00 | 50.87892 | 7.12613 | 232 ft | 10 kts | 184° |
| 2026-05-05 15:00 | 50.87841 | 7.12616 | 232 ft | 11 kts | 165° |
| 2026-05-05 15:00 | 50.87749 | 7.12728 | 232 ft | 14 kts | 137° |
| 2026-05-05 15:00 | 50.87671 | 7.12841 | 232 ft | 16 kts | 137° |
| 2026-05-05 15:01 | 50.87585 | 7.12966 | 232 ft | 17 kts | 137° |
| 2026-05-05 15:01 | 50.87492 | 7.13099 | 232 ft | 19 kts | 138° |
| 2026-05-05 15:01 | 50.87393 | 7.13242 | 232 ft | 20 kts | 137° |
| 2026-05-05 15:01 | 50.87289 | 7.13394 | 233 ft | 21 kts | 138° |
| 2026-05-05 15:02 | 50.87185 | 7.13544 | 237 ft | 20 kts | 137° |
| 2026-05-05 15:02 | 50.87087 | 7.13687 | 240 ft | 19 kts | 137° |
| 2026-05-05 15:02 | 50.86994 | 7.13821 | 244 ft | 18 kts | 138° |
| 2026-05-05 15:02 | 50.86912 | 7.13939 | 251 ft | 14 kts | 137° |
| 2026-05-05 15:03 | 50.86857 | 7.14020 | 255 ft | 9 kts | 137° |
| 2026-05-05 15:03 | 50.86799 | 7.14102 | 255 ft | 13 kts | 138° |
| 2026-05-05 15:03 | 50.86717 | 7.14160 | 257 ft | 12 kts | 138° |
| 2026-05-05 15:03 | 50.86659 | 7.14245 | 261 ft | 11 kts | 137° |
| 2026-05-05 15:04 | 50.86598 | 7.14331 | 261 ft | 14 kts | 139° |
| 2026-05-05 15:04 | 50.86526 | 7.14438 | 264 ft | 14 kts | 137° |
| 2026-05-05 15:04 | 50.86461 | 7.14533 | 268 ft | 12 kts | 138° |
| 2026-05-05 15:04 | 50.86401 | 7.14619 | 272 ft | 11 kts | 137° |
| 2026-05-05 15:05 | 50.86272 | 7.14806 | 279 ft | 14 kts | 138° |
| 2026-05-05 15:05 | 50.86199 | 7.14912 | 284 ft | 15 kts | 137° |
| 2026-05-05 15:05 | 50.86126 | 7.15018 | 286 ft | 14 kts | 137° |
| 2026-05-05 15:06 | 50.86054 | 7.15122 | 292 ft | 14 kts | 138° |
| 2026-05-05 15:06 | 50.85982 | 7.15226 | 291 ft | 14 kts | 137° |
| 2026-05-05 15:06 | 50.85915 | 7.15323 | 296 ft | 12 kts | 137° |
| 2026-05-05 15:06 | 50.85855 | 7.15410 | 300 ft | 12 kts | 138° |
| 2026-05-05 15:07 | 50.85795 | 7.15498 | 299 ft | 12 kts | 137° |
| 2026-05-05 15:07 | 50.85733 | 7.15588 | 300 ft | 12 kts | 137° |
| 2026-05-05 15:07 | 50.85668 | 7.15682 | 302 ft | 13 kts | 137° |
| 2026-05-05 15:07 | 50.85605 | 7.15773 | 304 ft | 11 kts | 137° |
| 2026-05-05 15:08 | 50.85556 | 7.15844 | 306 ft | 8 kts | 137° |
| 2026-05-05 15:08 | 50.85521 | 7.15895 | 307 ft | 6 kts | 137° |
| 2026-05-05 15:08 | 50.85478 | 7.15956 | 308 ft | 11 kts | 137° |
| 2026-05-05 15:08 | 50.85426 | 7.16033 | 308 ft | 10 kts | 137° |
| 2026-05-05 15:09 | 50.85379 | 7.16101 | 308 ft | 9 kts | 135° |
| 2026-05-05 15:09 | 50.85348 | 7.16174 | 308 ft | 7 kts | 115° |
| 2026-05-05 15:09 | 50.85335 | 7.16274 | 308 ft | 10 kts | 91° |
| 2026-05-05 15:09 | 50.85350 | 7.16376 | 308 ft | 9 kts | 66° |
| 2026-05-05 15:10 | 50.85383 | 7.16449 | 308 ft | 7 kts | 46° |
| 2026-05-05 15:10 | 50.85420 | 7.16491 | 308 ft | 2 kts | 28° |
| 2026-05-05 15:10 | 50.85421 | 7.16491 | 308 ft | 0 kts | 27° |
| 2026-05-05 15:10 | 50.85429 | 7.16498 | 308 ft | 0 kts | 25° |
| 2026-05-05 15:12 | 50.85438 | 7.16504 | 307 ft | 6 kts | 25° |
| 2026-05-05 15:13 | 50.85498 | 7.16521 | 307 ft | 10 kts | 5° |
| 2026-05-05 15:13 | 50.85566 | 7.16504 | 308 ft | 11 kts | 321° |
| 2026-05-05 15:13 | 50.85589 | 7.16470 | 308 ft | 0 kts | 317° |
| 2026-05-05 15:14 | 50.85591 | 7.16467 | 308 ft | 3 kts | 317° |
| 2026-05-05 15:14 | 50.85711 | 7.16293 | 309 ft | 58 kts | 317° |
| 2026-05-05 15:14 | 50.86176 | 7.15619 | 296 ft | 122 kts | 317° |
| 2026-05-05 15:14 | 50.86927 | 7.14533 | 392 ft | 159 kts | 317° |
| 2026-05-05 15:15 | 50.87717 | 7.13347 | 1117 ft | 157 kts | 316° |
| 2026-05-05 15:15 | 50.88514 | 7.12124 | 1767 ft | 163 kts | 318° |
| 2026-05-05 15:15 | 50.89539 | 7.11180 | 2051 ft | 183 kts | 352° |
| 2026-05-05 15:15 | 50.90845 | 7.11562 | 2352 ft | 204 kts | 26° |
| 2026-05-05 15:16 | 50.92143 | 7.12615 | 2893 ft | 213 kts | 27° |
| 2026-05-05 15:16 | 50.93380 | 7.13944 | 3496 ft | 220 kts | 47° |
| 2026-05-05 15:16 | 50.94219 | 7.16053 | 3900 ft | 238 kts | 64° |
| 2026-05-05 15:16 | 50.94974 | 7.18477 | 4304 ft | 261 kts | 64° |
| 2026-05-05 15:17 | 50.95793 | 7.21122 | 5014 ft | 271 kts | 65° |
| 2026-05-05 15:17 | 50.96642 | 7.23852 | 5854 ft | 277 kts | 65° |
| 2026-05-05 15:17 | 50.97506 | 7.26604 | 6690 ft | 282 kts | 64° |
| 2026-05-05 15:17 | 50.98393 | 7.29401 | 7545 ft | 285 kts | 64° |
| 2026-05-05 15:18 | 50.99294 | 7.32228 | 8407 ft | 289 kts | 64° |
| 2026-05-05 15:18 | 51.00204 | 7.35093 | 9260 ft | 293 kts | 64° |
| 2026-05-05 15:18 | 51.01084 | 7.38025 | 10069 ft | 296 kts | 71° |
| 2026-05-05 15:18 | 51.01564 | 7.41251 | 10506 ft | 310 kts | 87° |
| 2026-05-05 15:19 | 51.01472 | 7.44780 | 10763 ft | 330 kts | 101° |
| 2026-05-05 15:19 | 51.00877 | 7.48338 | 11345 ft | 337 kts | 110° |
| 2026-05-05 15:19 | 51.00137 | 7.51893 | 12075 ft | 341 kts | 109° |
| 2026-05-05 15:19 | 50.99425 | 7.55508 | 12815 ft | 345 kts | 109° |
| 2026-05-05 15:20 | 50.98723 | 7.59171 | 13538 ft | 349 kts | 108° |
| 2026-05-05 15:20 | 50.98016 | 7.62874 | 14197 ft | 353 kts | 108° |
| 2026-05-05 15:20 | 50.97294 | 7.66613 | 14873 ft | 356 kts | 108° |
| 2026-05-05 15:20 | 50.96560 | 7.70381 | 15512 ft | 359 kts | 109° |
| 2026-05-05 15:21 | 50.95813 | 7.74185 | 16151 ft | 363 kts | 108° |
| 2026-05-05 15:21 | 50.95326 | 7.78131 | 16769 ft | 368 kts | 96° |
| 2026-05-05 15:21 | 50.95395 | 7.82213 | 17392 ft | 374 kts | 83° |
| 2026-05-05 15:21 | 50.96048 | 7.86235 | 18005 ft | 380 kts | 70° |
| 2026-05-05 15:22 | 50.97238 | 7.89948 | 18543 ft | 385 kts | 60° |
| 2026-05-05 15:22 | 50.98631 | 7.93662 | 19098 ft | 388 kts | 61° |
| 2026-05-05 15:22 | 51.00007 | 7.97369 | 19647 ft | 391 kts | 61° |
| 2026-05-05 15:22 | 51.01386 | 8.01113 | 20191 ft | 394 kts | 62° |
| 2026-05-05 15:23 | 51.02774 | 8.04890 | 20736 ft | 398 kts | 62° |
| 2026-05-05 15:23 | 51.04176 | 8.08705 | 21243 ft | 402 kts | 62° |
| 2026-05-05 15:23 | 51.05590 | 8.12558 | 21767 ft | 405 kts | 62° |
| 2026-05-05 15:23 | 51.07021 | 8.16463 | 22280 ft | 409 kts | 62° |
| 2026-05-05 15:24 | 51.08452 | 8.20376 | 22778 ft | 413 kts | 62° |
| 2026-05-05 15:24 | 51.09900 | 8.24342 | 23288 ft | 416 kts | 62° |
| 2026-05-05 15:24 | 51.11357 | 8.28344 | 23708 ft | 419 kts | 62° |
| 2026-05-05 15:24 | 51.12821 | 8.32375 | 24126 ft | 422 kts | 62° |
| 2026-05-05 15:25 | 51.14294 | 8.36439 | 24535 ft | 425 kts | 62° |
| 2026-05-05 15:25 | 51.15771 | 8.40528 | 24915 ft | 428 kts | 62° |
| 2026-05-05 15:25 | 51.17257 | 8.44649 | 25307 ft | 431 kts | 62° |
| 2026-05-05 15:25 | 51.18754 | 8.48805 | 25755 ft | 434 kts | 62° |
| 2026-05-05 15:26 | 51.20346 | 8.52919 | 26210 ft | 439 kts | 56° |
| 2026-05-05 15:26 | 51.22272 | 8.56725 | 26754 ft | 443 kts | 52° |
| 2026-05-05 15:26 | 51.24238 | 8.60456 | 27156 ft | 447 kts | 52° |
| 2026-05-05 15:26 | 51.25593 | 8.63037 | 27363 ft | 451 kts | 52° |
| 2026-05-05 15:27 | 51.27612 | 8.66896 | 27650 ft | 455 kts | 52° |
| 2026-05-05 15:27 | 51.30339 | 8.72122 | 28068 ft | 460 kts | 52° |
| 2026-05-05 15:27 | 51.31693 | 8.74721 | 28276 ft | 462 kts | 52° |
| 2026-05-05 15:27 | 51.33752 | 8.78682 | 28603 ft | 464 kts | 52° |
| 2026-05-05 15:28 | 51.35823 | 8.82664 | 28917 ft | 467 kts | 52° |
| 2026-05-05 15:28 | 51.37901 | 8.86658 | 29224 ft | 469 kts | 52° |
| 2026-05-05 15:28 | 51.39998 | 8.90686 | 29521 ft | 471 kts | 52° |
| 2026-05-05 15:28 | 51.42102 | 8.94730 | 29814 ft | 474 kts | 52° |
| 2026-05-05 15:29 | 51.44216 | 8.98798 | 30068 ft | 476 kts | 52° |
| 2026-05-05 15:29 | 51.46335 | 9.02888 | 30320 ft | 478 kts | 52° |
| 2026-05-05 15:29 | 51.48462 | 9.07004 | 30542 ft | 480 kts | 52° |
| 2026-05-05 15:29 | 51.50598 | 9.11136 | 30764 ft | 482 kts | 52° |
| 2026-05-05 15:30 | 51.53449 | 9.16620 | 31049 ft | 485 kts | 51° |
| 2026-05-05 15:30 | 51.54890 | 9.19367 | 31195 ft | 486 kts | 51° |
| 2026-05-05 15:30 | 51.57074 | 9.23511 | 31493 ft | 485 kts | 51° |
| 2026-05-05 15:30 | 51.59254 | 9.27649 | 31790 ft | 485 kts | 51° |
| 2026-05-05 15:31 | 51.61433 | 9.31798 | 32090 ft | 485 kts | 51° |
| 2026-05-05 15:31 | 51.63607 | 9.35957 | 32391 ft | 485 kts | 51° |
| 2026-05-05 15:31 | 51.65774 | 9.40119 | 32680 ft | 485 kts | 51° |
| 2026-05-05 15:31 | 51.67941 | 9.44291 | 32830 ft | 483 kts | 51° |
| 2026-05-05 15:32 | 51.70080 | 9.48410 | 32841 ft | 476 kts | 51° |
| 2026-05-05 15:32 | 51.74310 | 9.56572 | 32845 ft | 473 kts | 51° |
| 2026-05-05 15:33 | 51.78512 | 9.64724 | 32846 ft | 472 kts | 51° |
| 2026-05-05 15:33 | 51.82704 | 9.72896 | 32851 ft | 472 kts | 51° |
| 2026-05-05 15:34 | 51.86900 | 9.81071 | 32827 ft | 473 kts | 51° |
| 2026-05-05 15:34 | 51.91103 | 9.89283 | 32841 ft | 474 kts | 51° |
| 2026-05-05 15:35 | 51.95305 | 9.97512 | 32837 ft | 474 kts | 51° |
| 2026-05-05 15:35 | 51.99505 | 10.05776 | 32840 ft | 475 kts | 51° |
| 2026-05-05 15:36 | 52.03693 | 10.14069 | 32841 ft | 475 kts | 51° |
| 2026-05-05 15:36 | 52.07878 | 10.22376 | 32847 ft | 475 kts | 51° |
| 2026-05-05 15:37 | 52.12067 | 10.30704 | 32849 ft | 476 kts | 51° |
| 2026-05-05 15:37 | 52.16257 | 10.39047 | 32846 ft | 476 kts | 51° |
| 2026-05-05 15:38 | 52.20441 | 10.47419 | 32863 ft | 477 kts | 51° |
| 2026-05-05 15:38 | 52.24627 | 10.55828 | 32867 ft | 478 kts | 51° |
| 2026-05-05 15:38 | 52.26722 | 10.60046 | 32740 ft | 478 kts | 51° |
| 2026-05-05 15:39 | 52.28778 | 10.64296 | 32486 ft | 475 kts | 56° |
| 2026-05-05 15:39 | 52.30319 | 10.69031 | 32222 ft | 471 kts | 71° |
| 2026-05-05 15:39 | 52.31355 | 10.74094 | 31964 ft | 469 kts | 74° |
| 2026-05-05 15:39 | 52.32349 | 10.79155 | 31705 ft | 467 kts | 74° |
| 2026-05-05 15:40 | 52.33316 | 10.84142 | 31449 ft | 465 kts | 74° |
| 2026-05-05 15:40 | 52.34284 | 10.89172 | 31197 ft | 463 kts | 74° |
| 2026-05-05 15:40 | 52.35247 | 10.94177 | 30939 ft | 461 kts | 74° |
| 2026-05-05 15:40 | 52.36205 | 10.99171 | 30671 ft | 459 kts | 74° |
| 2026-05-05 15:41 | 52.37159 | 11.04141 | 30426 ft | 457 kts | 74° |
| 2026-05-05 15:41 | 52.38108 | 11.09087 | 30181 ft | 455 kts | 74° |
| 2026-05-05 15:41 | 52.38977 | 11.13627 | 29895 ft | 451 kts | 74° |
| 2026-05-05 15:41 | 52.39912 | 11.18514 | 29292 ft | 449 kts | 74° |
| 2026-05-05 15:42 | 52.40840 | 11.23373 | 28747 ft | 445 kts | 74° |
| 2026-05-05 15:42 | 52.41760 | 11.28196 | 28210 ft | 442 kts | 74° |
| 2026-05-05 15:42 | 52.42672 | 11.32981 | 27680 ft | 439 kts | 74° |
| 2026-05-05 15:42 | 52.43577 | 11.37735 | 27171 ft | 435 kts | 74° |
| 2026-05-05 15:43 | 52.44470 | 11.42449 | 26659 ft | 432 kts | 74° |
| 2026-05-05 15:43 | 52.45351 | 11.47140 | 26182 ft | 429 kts | 74° |
| 2026-05-05 15:43 | 52.46219 | 11.51800 | 25664 ft | 426 kts | 74° |
| 2026-05-05 15:43 | 52.47117 | 11.56634 | 25157 ft | 423 kts | 74° |
| 2026-05-05 15:44 | 52.47936 | 11.61039 | 24698 ft | 421 kts | 74° |
| 2026-05-05 15:44 | 52.48791 | 11.65628 | 24187 ft | 420 kts | 74° |
| 2026-05-05 15:44 | 52.49647 | 11.70200 | 23681 ft | 418 kts | 74° |
| 2026-05-05 15:44 | 52.50498 | 11.74758 | 23113 ft | 417 kts | 74° |
| 2026-05-05 15:45 | 52.51340 | 11.79294 | 22592 ft | 414 kts | 74° |
| 2026-05-05 15:45 | 52.52172 | 11.83804 | 22077 ft | 411 kts | 74° |
| 2026-05-05 15:45 | 52.52996 | 11.88281 | 21562 ft | 409 kts | 74° |
| 2026-05-05 15:45 | 52.53817 | 11.92750 | 21116 ft | 406 kts | 74° |
| 2026-05-05 15:46 | 52.54627 | 11.97176 | 20595 ft | 404 kts | 74° |
| 2026-05-05 15:46 | 52.55426 | 12.01553 | 20124 ft | 400 kts | 74° |
| 2026-05-05 15:46 | 52.56215 | 12.05924 | 19728 ft | 395 kts | 76° |
| 2026-05-05 15:46 | 52.56679 | 12.10307 | 19053 ft | 386 kts | 89° |
| 2026-05-05 15:47 | 52.56682 | 12.14681 | 18546 ft | 381 kts | 92° |
| 2026-05-05 15:47 | 52.56670 | 12.17624 | 18226 ft | 381 kts | 91° |
| 2026-05-05 15:47 | 52.56699 | 12.23376 | 17537 ft | 380 kts | 86° |
| 2026-05-05 15:47 | 52.57079 | 12.27663 | 17038 ft | 378 kts | 81° |
| 2026-05-05 15:48 | 52.57503 | 12.31916 | 16543 ft | 376 kts | 82° |
| 2026-05-05 15:48 | 52.57921 | 12.36153 | 16061 ft | 375 kts | 82° |
| 2026-05-05 15:48 | 52.58334 | 12.40378 | 15575 ft | 374 kts | 82° |
| 2026-05-05 15:48 | 52.58740 | 12.44558 | 15353 ft | 365 kts | 82° |
| 2026-05-05 15:49 | 52.59115 | 12.48614 | 15220 ft | 353 kts | 85° |
| 2026-05-05 15:49 | 52.58953 | 12.52560 | 14964 ft | 343 kts | 108° |
| 2026-05-05 15:49 | 52.57937 | 12.56021 | 14612 ft | 334 kts | 130° |
| 2026-05-05 15:49 | 52.56452 | 12.58931 | 14248 ft | 331 kts | 134° |
| 2026-05-05 15:50 | 52.54920 | 12.61745 | 13928 ft | 330 kts | 135° |
| 2026-05-05 15:50 | 52.53390 | 12.64536 | 13600 ft | 328 kts | 135° |
| 2026-05-05 15:50 | 52.51868 | 12.67306 | 13207 ft | 326 kts | 135° |
| 2026-05-05 15:50 | 52.50351 | 12.70053 | 12812 ft | 324 kts | 135° |
| 2026-05-05 15:51 | 52.48838 | 12.72778 | 12416 ft | 322 kts | 135° |
| 2026-05-05 15:51 | 52.47329 | 12.75476 | 12024 ft | 320 kts | 135° |
| 2026-05-05 15:51 | 52.45825 | 12.78152 | 11633 ft | 318 kts | 135° |
| 2026-05-05 15:51 | 52.44323 | 12.80811 | 11140 ft | 320 kts | 135° |
| 2026-05-05 15:52 | 52.42814 | 12.83463 | 10535 ft | 315 kts | 135° |
| 2026-05-05 15:52 | 52.41328 | 12.86058 | 9932 ft | 309 kts | 135° |
| 2026-05-05 15:52 | 52.39869 | 12.88598 | 9292 ft | 304 kts | 135° |
| 2026-05-05 15:52 | 52.38432 | 12.91084 | 8629 ft | 298 kts | 135° |
| 2026-05-05 15:53 | 52.37017 | 12.93531 | 8002 ft | 293 kts | 135° |
| 2026-05-05 15:53 | 52.35622 | 12.95936 | 7375 ft | 289 kts | 135° |
| 2026-05-05 15:53 | 52.34249 | 12.98300 | 6755 ft | 285 kts | 135° |
| 2026-05-05 15:53 | 52.32886 | 13.00630 | 6142 ft | 281 kts | 135° |
| 2026-05-05 15:54 | 52.31536 | 13.02911 | 5500 ft | 277 kts | 135° |
| 2026-05-05 15:54 | 52.30199 | 13.05138 | 4878 ft | 273 kts | 135° |
| 2026-05-05 15:54 | 52.28870 | 13.07332 | 4215 ft | 270 kts | 135° |
| 2026-05-05 15:54 | 52.27755 | 13.09760 | 3526 ft | 266 kts | 115° |
| 2026-05-05 15:55 | 52.27217 | 13.12584 | 3097 ft | 256 kts | 96° |
| 2026-05-05 15:55 | 52.27206 | 13.15355 | 2989 ft | 232 kts | 80° |
| 2026-05-05 15:55 | 52.27572 | 13.17769 | 2996 ft | 213 kts | 68° |
| 2026-05-05 15:55 | 52.28109 | 13.19994 | 2995 ft | 209 kts | 67° |
| 2026-05-05 15:56 | 52.28637 | 13.22188 | 3001 ft | 205 kts | 67° |
| 2026-05-05 15:56 | 52.29147 | 13.24308 | 2995 ft | 195 kts | 67° |
| 2026-05-05 15:56 | 52.29625 | 13.26298 | 3032 ft | 183 kts | 67° |
| 2026-05-05 15:56 | 52.30092 | 13.28238 | 2709 ft | 188 kts | 67° |
| 2026-05-05 15:57 | 52.30580 | 13.30269 | 2368 ft | 195 kts | 66° |
| 2026-05-05 15:57 | 52.31069 | 13.32307 | 2079 ft | 189 kts | 67° |
| 2026-05-05 15:57 | 52.31536 | 13.34258 | 1826 ft | 180 kts | 67° |
| 2026-05-05 15:57 | 52.31966 | 13.36055 | 1616 ft | 159 kts | 67° |
| 2026-05-05 15:58 | 52.32347 | 13.37655 | 1406 ft | 145 kts | 66° |
| 2026-05-05 15:58 | 52.32706 | 13.39150 | 1211 ft | 138 kts | 66° |
| 2026-05-05 15:58 | 52.33050 | 13.40593 | 1018 ft | 136 kts | 66° |
| 2026-05-05 15:58 | 52.33394 | 13.42027 | 822 ft | 135 kts | 67° |
| 2026-05-05 15:59 | 52.33743 | 13.43447 | 601 ft | 135 kts | 66° |
| 2026-05-05 15:59 | 52.34082 | 13.44873 | 429 ft | 133 kts | 68° |
| 2026-05-05 15:59 | 52.34413 | 13.46295 | 278 ft | 134 kts | 68° |
| 2026-05-05 15:59 | 52.34749 | 13.47706 | 157 ft | 127 kts | 69° |
| 2026-05-05 16:00 | 52.35011 | 13.48812 | 154 ft | 79 kts | 69° |
| 2026-05-05 16:00 | 52.35161 | 13.49446 | 154 ft | 48 kts | 69° |
| 2026-05-05 16:00 | 52.35258 | 13.49795 | 154 ft | 21 kts | 55° |
| 2026-05-05 16:00 | 52.35339 | 13.49946 | 154 ft | 14 kts | 42° |
| 2026-05-05 16:01 | 52.35407 | 13.50035 | 154 ft | 13 kts | 39° |
| 2026-05-05 16:01 | 52.35479 | 13.50131 | 154 ft | 14 kts | 39° |
| 2026-05-05 16:01 | 52.35561 | 13.50239 | 154 ft | 16 kts | 39° |
| 2026-05-05 16:01 | 52.35621 | 13.50388 | 154 ft | 14 kts | 69° |
| 2026-05-05 16:02 | 52.35653 | 13.50521 | 154 ft | 11 kts | 69° |
| 2026-05-05 16:02 | 52.35677 | 13.50624 | 154 ft | 8 kts | 69° |
| 2026-05-05 16:02 | 52.35696 | 13.50705 | 154 ft | 7 kts | 69° |
| 2026-05-05 16:02 | 52.35713 | 13.50775 | 154 ft | 7 kts | 69° |
| 2026-05-05 16:03 | 52.35748 | 13.50828 | 154 ft | 7 kts | 14° |
| 2026-05-05 16:03 | 52.35805 | 13.50804 | 154 ft | 10 kts | 339° |
| 2026-05-05 16:03 | 52.35868 | 13.50767 | 154 ft | 9 kts | 349° |
| 2026-05-05 16:03 | 52.35915 | 13.50814 | 155 ft | 8 kts | 65° |
| 2026-05-05 16:04 | 52.35936 | 13.50902 | 155 ft | 8 kts | 69° |
| 2026-05-05 16:04 | 52.35956 | 13.50986 | 155 ft | 8 kts | 69° |
| 2026-05-05 16:04 | 52.35974 | 13.51064 | 155 ft | 8 kts | 69° |
| 2026-05-05 16:04 | 52.35995 | 13.51152 | 155 ft | 9 kts | 69° |
| 2026-05-05 16:05 | 52.36019 | 13.51249 | 155 ft | 9 kts | 68° |
| 2026-05-05 16:05 | 52.36039 | 13.51326 | 156 ft | 4 kts | 52° |
| 2026-05-05 16:05 | 52.36073 | 13.51330 | 155 ft | 6 kts | 342° |
| 2026-05-05 16:05 | 52.36106 | 13.51308 | 155 ft | 2 kts | 339° |
| 2026-05-05 16:06 | 52.36113 | 13.51304 | 155 ft | 1 kts | 339° |
| 2026-05-05 16:06 | 52.36123 | 13.51298 | 155 ft | 1 kts | 339° |
| 2026-05-05 16:06 | 52.36124 | 13.51297 | 155 ft | 0 kts | 339° |